Asahimaru No17 — JI3569 — position and weather

sailwx.info

Track history (hours):
 
Tides and Currents Weather Stations Pressure Air Temp Water Temp Dewpoint Dewpoint Depression Visibility Wind Speed Wind Dir Waves Ship Positions

Asahimaru No17

Last reported at 2018-Jun-19 21:33 UTC. Time now 2018-Jun-25 13:48 UTC.
Position N 34°36' E 135°03'.

Length 76 m.

Type: Cargo ship. MMSI: 431300202.

Date/timePositionNaut miles runAvg speedWind from/ knotsBaromVisibWave heightAir tempDewpointWater temp
2018-Jun-19 21:33N 34°36' E 135°03'1 9.5
2018-Jun-19 21:25N 34°36' E 135°05'510.6
2018-Jun-19 20:57N 34°35' E 135°11'  
2018-Jun-17 12:54N 34°40' E 135°26'2 6.2
2018-Jun-17 12:30N 34°38' E 135°23'510.4
2018-Jun-17 11:59N 34°35' E 135°18'510.8
2018-Jun-17 11:30N 34°34' E 135°12'611.7
2018-Jun-17 10:59N 34°35' E 135°05'29 0.6
2018-Jun-15 07:18N 34°28' E 134°31'1010.8
2018-Jun-15 06:24N 34°32' E 134°42'19 8.2
2018-Jun-15 04:06N 34°36' E 135°04'2 8.9
2018-Jun-15 03:52N 34°36' E 135°06'510.8
2018-Jun-15 03:22N 34°36' E 135°13'12 1.1
2018-Jun-14 16:51N 34°35' E 135°27'3 7.4
2018-Jun-14 16:24N 34°36' E 135°23'5 9.7
2018-Jun-14 15:54N 34°34' E 135°18'410.1
2018-Jun-14 15:30N 34°30' E 135°15'510.2
2018-Jun-14 15:00N 34°27' E 135°11'510.0
2018-Jun-14 14:29N 34°22' E 135°08'4 9.4
2018-Jun-14 14:00N 34°19' E 135°04'5 4.7
2018-Jun-14 13:01N 34°15' E 135°07'0 0.0
2018-Jun-14 12:58N 34°15' E 135°07'0 0.0
2018-Jun-14 12:28N 34°15' E 135°07'0 0.0
2018-Jun-14 10:52N 34°15' E 135°07'0 0.0
2018-Jun-14 10:25N 34°15' E 135°07'0 0.0
2018-Jun-14 09:55N 34°15' E 135°07'0 0.0
2018-Jun-14 09:22N 34°15' E 135°07'0 0.0
2018-Jun-14 08:52N 34°15' E 135°07'0 0.0
2018-Jun-14 08:28N 34°15' E 135°07'0 0.0
2018-Jun-14 07:55N 34°15' E 135°07'0 0.0
2018-Jun-14 07:28N 34°15' E 135°07'0 0.9
2018-Jun-14 06:54N 34°14' E 135°07'1 0.2
2018-Jun-13 23:36N 34°15' E 135°06'0 0.0
2018-Jun-13 23:12N 34°15' E 135°06'0 0.1
2018-Jun-13 22:59N 34°15' E 135°06'23 0.5
2018-Jun-12 02:52N 33°53' E 134°58'1311.3
2018-Jun-12 01:45N 34°04' E 134°49'  
Track history (hours):
 
Tides and Currents Weather Stations Pressure Air Temp Water Temp Dewpoint Dewpoint Depression Visibility Wind Speed Wind Dir Waves Ship Positions

Asahimaru No17

Last reported at 2018-Jun-19 21:33 UTC. Time now 2018-Jun-25 13:48 UTC.
Position N 34°36' E 135°03'.

Length 76 m.

Type: Cargo ship. MMSI: 431300202.

Date/timePositionNaut miles runAvg speedWind from/ knotsBaromVisibWave heightAir tempDewpointWater temp
2018-Jun-19 21:33N 34°36' E 135°03'1 9.5
2018-Jun-19 21:25N 34°36' E 135°05'510.6
2018-Jun-19 20:57N 34°35' E 135°11'  
2018-Jun-17 12:54N 34°40' E 135°26'2 6.2
2018-Jun-17 12:30N 34°38' E 135°23'510.4
2018-Jun-17 11:59N 34°35' E 135°18'510.8
2018-Jun-17 11:30N 34°34' E 135°12'611.7
2018-Jun-17 10:59N 34°35' E 135°05'29 0.6
2018-Jun-15 07:18N 34°28' E 134°31'1010.8
2018-Jun-15 06:24N 34°32' E 134°42'19 8.2
2018-Jun-15 04:06N 34°36' E 135°04'2 8.9
2018-Jun-15 03:52N 34°36' E 135°06'510.8
2018-Jun-15 03:22N 34°36' E 135°13'12 1.1
2018-Jun-14 16:51N 34°35' E 135°27'3 7.4
2018-Jun-14 16:24N 34°36' E 135°23'5 9.7
2018-Jun-14 15:54N 34°34' E 135°18'410.1
2018-Jun-14 15:30N 34°30' E 135°15'510.2
2018-Jun-14 15:00N 34°27' E 135°11'510.0
2018-Jun-14 14:29N 34°22' E 135°08'4 9.4
2018-Jun-14 14:00N 34°19' E 135°04'5 4.7
2018-Jun-14 13:01N 34°15' E 135°07'0 0.0
2018-Jun-14 12:58N 34°15' E 135°07'0 0.0
2018-Jun-14 12:28N 34°15' E 135°07'0 0.0
2018-Jun-14 10:52N 34°15' E 135°07'0 0.0
2018-Jun-14 10:25N 34°15' E 135°07'0 0.0
2018-Jun-14 09:55N 34°15' E 135°07'0 0.0
2018-Jun-14 09:22N 34°15' E 135°07'0 0.0
2018-Jun-14 08:52N 34°15' E 135°07'0 0.0
2018-Jun-14 08:28N 34°15' E 135°07'0 0.0
2018-Jun-14 07:55N 34°15' E 135°07'0 0.0
2018-Jun-14 07:28N 34°15' E 135°07'0 0.9
2018-Jun-14 06:54N 34°14' E 135°07'1 0.2
2018-Jun-13 23:36N 34°15' E 135°06'0 0.0
2018-Jun-13 23:12N 34°15' E 135°06'0 0.1
2018-Jun-13 22:59N 34°15' E 135°06'23 0.5
2018-Jun-12 02:52N 33°53' E 134°58'1311.3
2018-Jun-12 01:45N 34°04' E 134°49'  

Dump ship's entire track history